Vers la page d'accueil de NAV CANADA Ouverture d'une nouvelle session Chercher sur le site AWWS Clause de non-reponsabilité To the equivalent English page Trucs et astuces FAQ Quoi de neuf sur le site Vers la section Prévisions et observations / NOTAM Vers le site web pour <<Déposer un plan de vol>> Publications et liens importants Mise à jour du profil d'usager Numéros de téléphone des FIC Mes données météo personnelles Données météo de route Données météo régionales Données météo locales Vers la section Prévisions et observations / NOTAM
Requête générée le 2021/09/16 à 16:15:31 UTC. L'information météorologique disponible à ce moment est affichée.

METAR/TAF

Si vous notez des différences entre le METAR/TAF codé et le METAR/TAF en langage clair, veuillez utiliser la version codée. Les bulletins LWIS ne sont pas décodés en langage clair.

SHERBROOKE/QC    (voir Cam météo)

METAR CYSC 161600Z AUTO VRB02KT 9SM FEW250 18/12 A3030 RMK SLP265 DENSITY ALT 1 0FT=
METAR
LIEU
CYSC - SHERBROOKE/QC
DATE - HEURE
16 SEPTEMBRE 2021 - 1600 UTC
VENT
VRB @ 2  NOEUDS
VISIBILITE
9 MILLES TERR.
PORTEE VISUELLE DE PISTE
METEO
NEBULOSITE
QUELQUES NUAGES (1/8 - 2/8) 25000  PI
TEMP / PT DE ROSEE
18 C / 12 C
ALTIMETRE
30.30 PO HG
TEMPS RECENT
CISAILLEMENT

METAR CYSC 161500Z AUTO VRB03KT 9SM FEW250 18/12 A3030 RMK SLP263 DENSITY ALT 9 FT=
METAR
LIEU
CYSC - SHERBROOKE/QC
DATE - HEURE
16 SEPTEMBRE 2021 - 1500 UTC
VENT
VRB @ 3  NOEUDS
VISIBILITE
9 MILLES TERR.
PORTEE VISUELLE DE PISTE
METEO
NEBULOSITE
QUELQUES NUAGES (1/8 - 2/8) 25000  PI
TEMP / PT DE ROSEE
18 C / 12 C
ALTIMETRE
30.30 PO HG
TEMPS RECENT
CISAILLEMENT

METAR CYSC 161400Z AUTO VRB03KT 9SM FEW250 16/12 A3030 RMK SLP265=
METAR
LIEU
CYSC - SHERBROOKE/QC
DATE - HEURE
16 SEPTEMBRE 2021 - 1400 UTC
VENT
VRB @ 3  NOEUDS
VISIBILITE
9 MILLES TERR.
PORTEE VISUELLE DE PISTE
METEO
NEBULOSITE
QUELQUES NUAGES (1/8 - 2/8) 25000  PI
TEMP / PT DE ROSEE
16 C / 12 C
ALTIMETRE
30.30 PO HG
TEMPS RECENT
CISAILLEMENT

TAF AMD CYSC 161107Z 1611/1623 VRB03KT 1/8SM FG VV001 BECMG 1611/1612 P6SM NSW SKC RMK FCST BASED ON AUTO OBS. NXT FCST BY 161800Z=
TAF MODIFIE
LIEU

CYSC - SHERBROOKE/QC
VALIDITE [UTC]
16 SEP - 1107 à
16 SEP - 2300
 
PERIODES
[UTC]
VENT
[DEGRES VRAIS]
VISIBILITE
[MILLES TERR.]
METEO
NEBULOSITE
[PIEDS AGL]
 
16 SEP - 1100 à
16 SEP - 2300
VARIABLE @ 3 NOEUDS
1/8
BROUILLARD
VISIBILITE VERTICALE 100
CHANGEMENTS GRADUELS
16 SEP - 1100 à
16 SEP - 1200
 
6+
---
CIEL DEGAGE
REMARQUES
LA PREVISION EST FONDEE SUR DES OBSERVATIONS AUTOMATISEES - LA PREVISION SUIVANTE SERA EMISE POUR 1800 UTC LE 16


Votre heure Heure UTC
Données météorologiques fournies par Environnement Canada et NAV CANADA